createdAt,value
2018-06-30T00:01:23.233Z,57.90
2018-06-30T00:03:53.552Z,58.00
2018-06-30T00:06:25.574Z,58.00
2018-06-30T00:08:56.780Z,58.40
2018-06-30T00:11:27.284Z,58.60
2018-06-30T00:13:57.347Z,58.70
2018-06-30T00:16:27.492Z,59.00
2018-06-30T00:18:57.692Z,59.30
2018-06-30T00:21:27.907Z,59.50
2018-06-30T00:23:58.130Z,59.60
2018-06-30T00:26:28.328Z,59.70
2018-06-30T00:28:58.540Z,59.90
2018-06-30T00:31:28.558Z,60.30
2018-06-30T00:33:58.814Z,60.10
2018-06-30T00:36:28.968Z,60.00
2018-06-30T00:38:59.220Z,60.40
2018-06-30T00:41:29.436Z,60.70
2018-06-30T00:43:59.780Z,60.90
2018-06-30T00:46:29.960Z,61.00
2018-06-30T00:48:59.955Z,61.20
2018-06-30T00:51:30.179Z,61.50
2018-06-30T00:54:00.360Z,61.50
2018-06-30T00:56:30.535Z,61.50
2018-06-30T00:59:00.465Z,61.80
2018-06-30T01:01:31.068Z,62.80
2018-06-30T01:04:01.119Z,62.70
2018-06-30T01:06:31.345Z,62.70
2018-06-30T01:09:01.574Z,62.70
2018-06-30T01:11:32.491Z,62.60
2018-06-30T01:14:02.830Z,62.70
2018-06-30T01:16:32.984Z,62.70
2018-06-30T01:19:03.291Z,63.00
2018-06-30T01:21:33.413Z,62.90
2018-06-30T01:24:03.732Z,63.00
2018-06-30T01:26:33.918Z,63.10
2018-06-30T01:29:05.064Z,63.30
2018-06-30T01:31:35.175Z,63.50
2018-06-30T01:34:05.508Z,63.50
2018-06-30T01:36:35.860Z,64.00
2018-06-30T01:39:09.880Z,64.00
2018-06-30T01:41:40.444Z,64.20
2018-06-30T01:44:10.594Z,65.00
2018-06-30T01:46:40.860Z,64.90
2018-06-30T01:49:10.938Z,64.90
2018-06-30T01:51:40.958Z,64.90
2018-06-30T01:54:10.973Z,64.80
2018-06-30T01:56:41.121Z,65.00
2018-06-30T01:59:11.194Z,64.80
2018-06-30T02:01:42.019Z,65.10
2018-06-30T02:04:12.955Z,65.30
2018-06-30T02:11:45.203Z,65.90
2018-06-30T02:14:15.216Z,65.90
2018-06-30T02:16:45.652Z,65.90
2018-06-30T02:19:15.786Z,65.70
2018-06-30T02:21:45.966Z,65.30
2018-06-30T02:24:15.888Z,65.60
2018-06-30T02:26:46.274Z,65.50
2018-06-30T02:29:16.570Z,65.60
2018-06-30T02:31:46.798Z,65.80
2018-06-30T02:34:16.966Z,66.00
2018-06-30T02:36:47.103Z,65.60
2018-06-30T02:39:17.514Z,66.40
2018-06-30T02:41:47.630Z,66.40
2018-06-30T02:44:18.281Z,66.50
2018-06-30T02:46:48.499Z,66.40
2018-06-30T02:49:19.043Z,66.30
2018-06-30T02:51:49.359Z,66.30
2018-06-30T02:54:19.436Z,66.70
2018-06-30T02:56:49.824Z,66.80
2018-06-30T02:59:19.924Z,67.00
2018-06-30T03:01:50.235Z,66.90
2018-06-30T03:04:20.266Z,67.30
2018-06-30T03:06:50.508Z,67.60
2018-06-30T03:09:20.821Z,67.90
2018-06-30T03:11:50.909Z,68.20
2018-06-30T03:14:21.124Z,68.10
2018-06-30T03:16:51.270Z,68.40
2018-06-30T03:19:21.441Z,68.50
2018-06-30T03:21:51.679Z,69.00
2018-06-30T03:24:22.046Z,69.00
2018-06-30T03:26:52.074Z,69.30
2018-06-30T03:29:22.165Z,69.70
2018-06-30T03:31:52.444Z,69.10
2018-06-30T03:34:22.808Z,69.10
2018-06-30T03:36:52.976Z,69.20
2018-06-30T03:39:23.499Z,69.50
2018-06-30T03:41:53.419Z,69.60
2018-06-30T03:44:23.480Z,69.80
2018-06-30T03:46:53.464Z,69.90
2018-06-30T03:49:23.727Z,69.60
2018-06-30T03:51:54.199Z,69.70
2018-06-30T03:54:24.230Z,69.80
2018-06-30T03:56:54.464Z,69.90
2018-06-30T03:59:24.552Z,70.20
2018-06-30T04:01:54.806Z,70.30
2018-06-30T04:04:25.108Z,70.40
2018-06-30T04:06:55.322Z,70.40
2018-06-30T04:09:25.424Z,70.30
2018-06-30T04:11:55.669Z,70.80
2018-06-30T04:14:25.910Z,70.20
2018-06-30T04:16:56.037Z,70.50
2018-06-30T04:19:26.161Z,70.80
2018-06-30T04:21:56.317Z,71.00
2018-06-30T04:24:26.685Z,71.00
2018-06-30T04:26:56.829Z,71.50
2018-06-30T04:29:27.030Z,71.50
2018-06-30T04:31:57.064Z,71.30
2018-06-30T04:34:27.549Z,70.90
2018-06-30T04:36:57.582Z,70.80
2018-06-30T04:39:27.652Z,70.60
2018-06-30T04:41:57.749Z,70.80
2018-06-30T04:44:28.115Z,71.00
2018-06-30T04:46:58.361Z,70.80
2018-06-30T04:49:28.431Z,70.70
2018-06-30T04:51:58.459Z,70.70
2018-06-30T04:54:29.160Z,70.80
2018-06-30T04:56:59.615Z,70.90
2018-06-30T04:59:29.797Z,70.70
2018-06-30T05:02:00.371Z,71.30
2018-06-30T05:07:02.720Z,71.70
2018-06-30T05:09:33.965Z,71.80
2018-06-30T05:12:05.025Z,72.10
2018-06-30T05:20:33.284Z,71.90
2018-06-30T05:23:03.551Z,72.10
2018-06-30T05:25:33.729Z,72.80
2018-06-30T05:28:03.915Z,71.70
2018-06-30T05:30:33.944Z,71.20
2018-06-30T05:33:04.354Z,70.60
2018-06-30T05:35:34.445Z,69.80
2018-06-30T05:38:04.705Z,69.70
2018-06-30T05:40:34.886Z,69.60
2018-06-30T05:43:05.024Z,69.70
2018-06-30T05:45:35.234Z,71.50
2018-06-30T05:48:05.596Z,69.40
2018-06-30T05:50:35.540Z,67.80
2018-06-30T05:53:06.720Z,66.10
2018-06-30T05:55:37.070Z,66.30
2018-06-30T05:58:07.796Z,65.70
2018-06-30T06:00:37.974Z,65.00
2018-06-30T06:03:08.415Z,64.30
2018-06-30T06:05:38.616Z,63.70
2018-06-30T06:08:08.826Z,63.10
2018-06-30T06:10:39.273Z,61.90
2018-06-30T06:15:39.281Z,62.30
2018-06-30T06:18:09.851Z,62.20
2018-06-30T06:20:40.230Z,61.70
2018-06-30T06:23:10.410Z,61.50
2018-06-30T06:25:40.509Z,60.90
2018-06-30T06:28:10.592Z,60.50
2018-06-30T06:30:40.828Z,60.20
2018-06-30T06:33:11.351Z,59.80
2018-06-30T06:35:42.084Z,59.70
2018-06-30T06:38:13.233Z,59.10
2018-06-30T06:40:44.356Z,58.50
2018-06-30T06:43:15.145Z,58.30
2018-06-30T06:45:46.844Z,58.10
2018-06-30T06:48:17.475Z,57.60
2018-06-30T06:50:48.591Z,57.30
2018-06-30T06:53:19.673Z,56.80
2018-06-30T06:55:50.606Z,56.70
2018-06-30T07:03:22.292Z,57.10
2018-06-30T07:05:52.408Z,57.90
2018-06-30T07:08:22.947Z,57.80
2018-06-30T07:10:53.650Z,57.40
2018-06-30T07:13:23.860Z,57.10
2018-06-30T07:15:53.986Z,57.00
2018-06-30T07:18:24.420Z,57.20
2018-06-30T07:20:54.461Z,57.70
2018-06-30T07:23:24.576Z,57.90
2018-06-30T07:25:54.575Z,57.40
2018-06-30T07:30:54.780Z,58.90
2018-06-30T07:33:25.648Z,58.20
2018-06-30T07:35:56.089Z,58.00
2018-06-30T07:38:26.627Z,58.20
2018-06-30T07:40:57.306Z,58.50
2018-06-30T07:43:27.508Z,58.40
2018-06-30T07:45:57.577Z,58.10
2018-06-30T07:48:27.651Z,57.60
2018-06-30T07:50:57.770Z,57.90
2018-06-30T07:53:28.006Z,58.30
2018-06-30T07:55:58.111Z,58.00
2018-06-30T07:58:28.238Z,58.10
2018-06-30T08:00:58.417Z,57.20
2018-06-30T08:03:28.562Z,57.70
2018-06-30T08:05:58.631Z,57.70
2018-06-30T08:08:29.168Z,57.60
2018-06-30T08:10:59.336Z,57.80
2018-06-30T08:13:29.571Z,58.30
2018-06-30T08:15:59.655Z,57.70
2018-06-30T08:18:29.778Z,56.80
2018-06-30T08:20:59.882Z,56.80
2018-06-30T08:23:30.160Z,56.70
2018-06-30T08:26:01.590Z,57.20
2018-06-30T08:28:32.358Z,56.50
2018-06-30T08:31:03.459Z,56.70
2018-06-30T08:33:34.062Z,56.80
2018-06-30T08:36:05.425Z,56.40
2018-06-30T08:38:36.215Z,56.80
2018-06-30T08:41:07.370Z,57.20
2018-06-30T08:43:38.231Z,56.60
2018-06-30T08:46:09.646Z,57.00
2018-06-30T08:48:40.230Z,57.20
2018-06-30T08:53:41.303Z,56.20
2018-06-30T08:56:11.622Z,56.60
2018-06-30T08:58:42.007Z,56.20
2018-06-30T09:01:12.387Z,55.20
2018-06-30T09:03:42.556Z,55.40
2018-06-30T09:06:12.940Z,55.00
2018-06-30T09:08:43.591Z,54.70
2018-06-30T09:11:13.733Z,54.30
2018-06-30T09:13:43.920Z,54.50
2018-06-30T09:16:14.244Z,54.20
2018-06-30T09:18:44.451Z,53.90
2018-06-30T09:21:14.548Z,53.30
2018-06-30T09:23:44.718Z,53.50
2018-06-30T09:26:14.943Z,53.20
2018-06-30T09:28:45.147Z,53.00
2018-06-30T09:31:15.303Z,53.30
2018-06-30T09:33:45.466Z,50.60
2018-06-30T09:36:15.739Z,50.80
2018-06-30T09:38:45.921Z,51.50
2018-06-30T09:41:15.979Z,51.80
2018-06-30T09:43:46.206Z,51.30
2018-06-30T09:46:16.562Z,50.90
2018-06-30T09:51:16.881Z,47.40
2018-06-30T09:53:47.025Z,49.00
2018-06-30T09:56:17.425Z,48.10
2018-06-30T09:58:47.533Z,48.00
2018-06-30T10:01:17.740Z,47.60
2018-06-30T10:03:47.936Z,45.90
2018-06-30T10:06:17.997Z,45.80
2018-06-30T10:08:48.292Z,45.10
2018-06-30T10:11:18.554Z,45.40
2018-06-30T10:13:48.767Z,45.20
2018-06-30T10:16:18.851Z,45.00
2018-06-30T10:18:49.242Z,44.30
2018-06-30T10:21:19.800Z,45.00
2018-06-30T10:23:50.240Z,44.10
2018-06-30T10:26:20.317Z,42.40
2018-06-30T10:28:50.827Z,43.20
2018-06-30T10:31:21.138Z,42.00
2018-06-30T10:33:51.397Z,41.40
2018-06-30T10:36:21.557Z,41.50
2018-06-30T10:38:51.804Z,40.10
2018-06-30T10:41:21.894Z,39.90
2018-06-30T10:43:52.121Z,39.50
2018-06-30T10:46:22.188Z,40.10
2018-06-30T10:48:52.491Z,39.50
2018-06-30T10:51:22.810Z,39.50
2018-06-30T10:53:53.156Z,38.70
2018-06-30T10:56:23.780Z,37.60
2018-06-30T10:58:54.038Z,38.40
2018-06-30T11:01:24.998Z,37.20
2018-06-30T11:03:55.608Z,39.00
2018-06-30T11:06:26.326Z,38.90
2018-06-30T11:08:57.692Z,38.10
2018-06-30T11:13:59.501Z,38.70
2018-06-30T11:16:30.411Z,37.50
2018-06-30T11:19:01.472Z,36.30
2018-06-30T11:21:32.472Z,35.40
2018-06-30T11:24:03.814Z,34.80
2018-06-30T11:26:34.263Z,34.40
2018-06-30T11:29:05.930Z,33.00
2018-06-30T11:31:36.386Z,33.40
2018-06-30T11:34:07.822Z,33.50
2018-06-30T11:36:38.593Z,33.50
2018-06-30T11:39:13.051Z,33.00
2018-06-30T11:41:43.886Z,32.80
2018-06-30T11:44:14.244Z,32.80
2018-06-30T11:46:44.469Z,32.90
2018-06-30T11:49:14.709Z,33.00
2018-06-30T11:51:44.865Z,33.30
2018-06-30T11:54:16.126Z,32.20
2018-06-30T11:56:47.108Z,32.10
2018-06-30T11:59:18.150Z,32.70
2018-06-30T12:01:48.403Z,32.00
2018-06-30T12:04:18.661Z,30.90
2018-06-30T12:06:48.915Z,32.00
2018-06-30T12:09:19.137Z,31.70
2018-06-30T12:14:19.427Z,31.00
2018-06-30T12:16:49.731Z,31.20
2018-06-30T12:19:19.867Z,30.20
2018-06-30T12:21:50.052Z,31.30
2018-06-30T12:24:20.055Z,30.90
2018-06-30T12:26:50.521Z,31.10
2018-06-30T12:29:20.940Z,30.10
2018-06-30T12:31:51.103Z,29.80
2018-06-30T12:34:21.181Z,28.70
2018-06-30T12:36:51.336Z,28.50
2018-06-30T12:39:21.494Z,28.00
2018-06-30T12:41:51.709Z,28.30
2018-06-30T12:44:21.888Z,28.50
2018-06-30T12:46:52.203Z,28.10
2018-06-30T12:49:22.469Z,28.60
2018-06-30T12:51:52.897Z,27.80
2018-06-30T12:54:24.653Z,27.80
2018-06-30T12:56:55.443Z,26.90
2018-06-30T12:59:25.781Z,27.30
2018-06-30T13:01:56.206Z,27.20
2018-06-30T13:04:26.529Z,26.50
2018-06-30T13:06:56.833Z,27.70
2018-06-30T13:09:27.346Z,27.80
2018-06-30T13:11:57.977Z,27.50
2018-06-30T13:14:28.197Z,27.30
2018-06-30T13:16:58.526Z,26.80
2018-06-30T13:19:28.667Z,27.00
2018-06-30T13:21:58.901Z,26.70
2018-06-30T13:24:28.864Z,26.20
2018-06-30T13:26:58.997Z,25.90
2018-06-30T13:31:59.584Z,26.70
2018-06-30T13:34:29.762Z,26.20
2018-06-30T13:36:59.901Z,27.30
2018-06-30T13:39:30.129Z,26.40
2018-06-30T13:42:00.451Z,25.40
2018-06-30T13:44:30.799Z,25.60
2018-06-30T13:47:00.949Z,25.90
2018-06-30T13:49:31.253Z,26.60
2018-06-30T13:52:01.446Z,25.30
2018-06-30T13:54:32.014Z,26.20
2018-06-30T13:57:02.412Z,25.60
2018-06-30T13:59:32.703Z,26.20
2018-06-30T14:02:02.808Z,26.00
2018-06-30T14:04:32.917Z,24.90
2018-06-30T14:07:03.194Z,25.30
2018-06-30T14:09:33.497Z,24.90
2018-06-30T14:12:03.534Z,24.60
2018-06-30T14:14:33.746Z,24.50
2018-06-30T14:17:03.927Z,24.10
2018-06-30T14:19:34.254Z,24.20
2018-06-30T14:22:04.294Z,25.10
2018-06-30T14:24:34.533Z,24.50
2018-06-30T14:27:04.861Z,24.10
2018-06-30T14:29:35.149Z,23.30
2018-06-30T14:32:05.196Z,23.40
2018-06-30T14:34:35.302Z,23.60
2018-06-30T14:37:05.468Z,23.20
2018-06-30T14:39:35.700Z,23.40
2018-06-30T14:42:05.845Z,23.80
2018-06-30T14:44:35.947Z,22.60
2018-06-30T14:47:06.151Z,22.40
2018-06-30T14:50:32.283Z,22.70
2018-06-30T14:53:02.315Z,22.50
2018-06-30T14:55:32.647Z,22.80
2018-06-30T14:58:02.807Z,23.00
2018-06-30T15:00:33.097Z,22.90
2018-06-30T15:03:03.500Z,22.50
2018-06-30T15:05:34.129Z,22.20
2018-06-30T15:08:04.476Z,21.70
2018-06-30T15:10:34.532Z,22.50
2018-06-30T15:13:04.766Z,21.20
2018-06-30T15:15:35.017Z,21.90
2018-06-30T15:18:05.245Z,22.00
2018-06-30T15:20:35.559Z,21.80
2018-06-30T15:23:05.802Z,21.80
2018-06-30T15:25:36.005Z,22.40
2018-06-30T15:28:06.571Z,21.90
2018-06-30T15:30:37.235Z,21.00
2018-06-30T15:33:07.267Z,21.40
2018-06-30T15:35:37.592Z,21.40
2018-06-30T15:38:07.758Z,21.80
2018-06-30T15:40:38.027Z,21.40
2018-06-30T15:45:38.343Z,21.10
2018-06-30T15:48:08.569Z,21.00
2018-06-30T15:50:38.753Z,21.00
2018-06-30T15:53:09.027Z,20.70
2018-06-30T15:55:39.203Z,20.40
2018-06-30T15:58:09.554Z,20.20
2018-06-30T16:00:39.838Z,21.00
2018-06-30T16:03:10.156Z,19.90
2018-06-30T16:05:40.711Z,19.80
2018-06-30T16:08:10.963Z,19.70
2018-06-30T16:10:41.394Z,19.80
2018-06-30T16:13:11.963Z,20.00
2018-06-30T16:15:42.816Z,19.20
2018-06-30T16:18:14.065Z,18.80
2018-06-30T16:20:45.085Z,19.70
2018-06-30T16:23:16.335Z,18.90
2018-06-30T16:25:47.289Z,18.50
2018-06-30T16:30:33.908Z,18.20
2018-06-30T16:33:04.132Z,17.70
2018-06-30T16:35:34.328Z,18.30
2018-06-30T16:38:04.625Z,17.70
2018-06-30T16:40:34.858Z,17.30
2018-06-30T16:43:05.029Z,17.10
2018-06-30T16:45:35.105Z,17.20
2018-06-30T16:48:05.364Z,17.00
2018-06-30T16:50:35.544Z,17.40
2018-06-30T16:53:05.787Z,17.10
2018-06-30T16:55:35.907Z,17.30
2018-06-30T16:58:06.121Z,17.30
2018-06-30T17:00:37.530Z,16.80
2018-06-30T17:03:08.768Z,17.00
2018-06-30T17:08:08.902Z,16.80
2018-06-30T17:10:39.167Z,16.90
2018-06-30T17:13:09.157Z,16.60
2018-06-30T17:15:39.290Z,16.40
2018-06-30T17:18:09.712Z,16.20
2018-06-30T17:20:41.069Z,15.70
2018-06-30T17:23:11.474Z,16.10
2018-06-30T17:25:42.215Z,15.90
2018-06-30T17:28:13.335Z,16.00
2018-06-30T17:30:44.090Z,16.30
2018-06-30T17:33:14.772Z,16.20
2018-06-30T17:35:46.047Z,16.40
2018-06-30T17:38:17.384Z,16.80
2018-06-30T17:40:48.213Z,16.60
2018-06-30T17:43:19.198Z,16.80
2018-06-30T17:45:50.241Z,16.70
2018-06-30T17:48:20.755Z,16.40
2018-06-30T17:50:50.902Z,16.60
2018-06-30T17:53:21.162Z,16.70
2018-06-30T17:55:51.428Z,16.70
2018-06-30T17:58:21.549Z,16.90
2018-06-30T18:00:51.869Z,17.10
2018-06-30T18:03:22.009Z,17.00
2018-06-30T18:05:52.254Z,17.40
2018-06-30T18:08:22.385Z,17.40
2018-06-30T18:10:52.949Z,17.60
2018-06-30T18:13:23.312Z,17.50
2018-06-30T18:15:53.787Z,17.40
2018-06-30T18:18:24.164Z,17.50
2018-06-30T18:20:54.223Z,17.30
2018-06-30T18:23:24.759Z,17.70
2018-06-30T18:25:55.390Z,17.60
2018-06-30T18:28:25.697Z,17.50
2018-06-30T18:30:56.078Z,17.70
2018-06-30T18:33:26.239Z,17.90
2018-06-30T18:35:56.677Z,18.40
2018-06-30T18:38:26.818Z,18.50
2018-06-30T18:40:57.100Z,18.70
2018-06-30T18:43:27.345Z,19.00
2018-06-30T18:45:57.768Z,19.10
2018-06-30T18:48:28.206Z,20.10
2018-06-30T18:50:58.652Z,20.90
2018-06-30T18:53:29.009Z,21.60
2018-06-30T18:55:59.290Z,22.20
2018-06-30T18:58:29.307Z,22.90
2018-06-30T19:00:59.595Z,23.80
2018-06-30T19:03:29.829Z,24.40
2018-06-30T19:06:00.319Z,25.40
2018-06-30T19:08:30.893Z,25.10
2018-06-30T19:11:01.340Z,25.70
2018-06-30T19:13:31.449Z,25.80
2018-06-30T19:16:01.833Z,26.00
2018-06-30T19:18:32.068Z,25.70
2018-06-30T19:21:02.044Z,25.90
2018-06-30T19:23:32.315Z,26.00
2018-06-30T19:26:03.136Z,26.10
2018-06-30T19:28:34.053Z,26.10
2018-06-30T19:31:06.099Z,26.30
2018-06-30T19:33:36.019Z,26.50
2018-06-30T19:36:06.984Z,26.40
2018-06-30T19:38:38.083Z,26.40
2018-06-30T19:41:09.385Z,26.40
2018-06-30T19:43:40.258Z,26.50
2018-06-30T19:48:40.587Z,26.50
2018-06-30T19:51:11.134Z,26.90
2018-06-30T19:53:41.318Z,26.90
2018-06-30T19:56:11.564Z,27.20
2018-06-30T19:58:41.803Z,27.20
2018-06-30T20:01:12.098Z,27.30
2018-06-30T20:03:42.469Z,27.40
2018-06-30T20:06:12.690Z,27.50
2018-06-30T20:08:43.339Z,28.10
2018-06-30T20:11:13.768Z,27.70
2018-06-30T20:13:44.246Z,27.60
2018-06-30T20:18:44.444Z,27.90
2018-06-30T20:21:14.937Z,27.70
2018-06-30T20:23:45.119Z,28.10
2018-06-30T20:26:15.695Z,28.30
2018-06-30T20:28:46.050Z,27.80
2018-06-30T20:31:16.332Z,28.10
2018-06-30T20:33:46.637Z,28.60
2018-06-30T20:36:16.881Z,28.20
2018-06-30T20:38:47.181Z,28.30
2018-06-30T20:41:18.045Z,28.30
2018-06-30T20:43:48.276Z,28.80
2018-06-30T20:46:18.790Z,28.70
2018-06-30T20:48:49.421Z,28.60
2018-06-30T20:51:19.815Z,28.50
2018-06-30T20:53:49.919Z,28.60
2018-06-30T20:56:20.001Z,28.50
2018-06-30T20:58:50.376Z,34.50
2018-06-30T21:01:20.793Z,37.60
2018-06-30T21:06:20.816Z,34.10
2018-06-30T21:08:51.009Z,34.00
2018-06-30T21:11:22.068Z,32.40
2018-06-30T21:13:52.332Z,33.50
2018-06-30T21:16:23.696Z,32.40
2018-06-30T21:18:53.960Z,33.10
2018-06-30T21:21:24.274Z,31.10
2018-06-30T21:23:54.705Z,34.20
2018-06-30T21:26:24.789Z,33.20
2018-06-30T21:28:55.582Z,31.30
2018-06-30T21:31:25.724Z,32.50
2018-06-30T21:33:55.876Z,32.80
2018-06-30T21:36:26.969Z,34.60
2018-06-30T21:38:58.187Z,36.20
2018-06-30T21:41:28.930Z,34.10
2018-06-30T21:43:59.631Z,33.00
2018-06-30T21:46:29.888Z,30.90
2018-06-30T21:49:00.026Z,31.20
2018-06-30T21:51:30.496Z,31.70
2018-06-30T21:54:00.629Z,31.30
2018-06-30T21:56:30.733Z,30.90
2018-06-30T22:01:31.041Z,30.70
2018-06-30T22:04:02.126Z,30.60
2018-06-30T22:09:03.293Z,30.30
2018-06-30T22:11:33.766Z,31.00
2018-06-30T22:14:04.025Z,31.00
2018-06-30T22:16:34.062Z,31.10
2018-06-30T22:19:04.341Z,31.70
2018-06-30T22:21:34.356Z,31.80
2018-06-30T22:24:04.690Z,31.50
2018-06-30T22:26:34.858Z,32.60
2018-06-30T22:29:05.027Z,32.50
2018-06-30T22:31:35.306Z,32.00
2018-06-30T22:34:05.549Z,32.80
2018-06-30T22:36:35.691Z,32.20
2018-06-30T22:39:08.823Z,32.40
2018-06-30T22:41:39.028Z,33.20
2018-06-30T22:44:09.164Z,32.40
2018-06-30T22:46:39.428Z,33.00
2018-06-30T22:49:09.724Z,32.70
2018-06-30T22:51:39.815Z,33.20
2018-06-30T22:54:09.936Z,32.80
2018-06-30T22:56:40.219Z,32.90
2018-06-30T22:59:10.393Z,33.10
2018-06-30T23:01:40.704Z,33.40
2018-06-30T23:04:10.861Z,34.00
2018-06-30T23:06:40.920Z,34.00
2018-06-30T23:09:11.759Z,33.70
2018-06-30T23:11:41.861Z,33.70
2018-06-30T23:14:12.230Z,34.20
2018-06-30T23:16:42.225Z,33.90
2018-06-30T23:19:12.164Z,34.00
2018-06-30T23:21:42.569Z,34.30
2018-06-30T23:24:12.787Z,34.10
2018-06-30T23:26:42.912Z,34.00
2018-06-30T23:29:13.030Z,34.20
2018-06-30T23:31:43.182Z,34.00
2018-06-30T23:34:13.149Z,34.60
2018-06-30T23:36:43.211Z,33.60
2018-06-30T23:39:13.421Z,34.80
2018-06-30T23:41:43.914Z,34.70
2018-06-30T23:44:14.684Z,34.70
2018-06-30T23:46:45.673Z,35.20
2018-06-30T23:51:46.527Z,35.40
2018-06-30T23:54:16.619Z,35.00
2018-06-30T23:56:46.684Z,34.70
2018-06-30T23:59:16.897Z,34.60
